createdAt,value
2023-02-07T00:00:35.836Z,102076.34
2023-02-07T00:04:51.985Z,102085.19
2023-02-07T00:09:10.913Z,102083.88
2023-02-07T00:13:27.116Z,102081.00
2023-02-07T00:17:43.510Z,102087.34
2023-02-07T00:21:59.898Z,102094.19
2023-02-07T00:26:17.229Z,102099.66
2023-02-07T00:30:33.506Z,102111.66
2023-02-07T00:34:50.889Z,102112.53
2023-02-07T00:39:11.853Z,102111.16
2023-02-07T00:43:30.456Z,102104.13
2023-02-07T00:47:46.690Z,102113.47
2023-02-07T00:52:03.788Z,102109.81
2023-02-07T00:56:20.620Z,102112.25
2023-02-07T01:00:36.985Z,102103.28
2023-02-07T01:04:53.189Z,102097.75
2023-02-07T01:09:10.635Z,102097.97
2023-02-07T01:13:26.884Z,102081.63
2023-02-07T01:17:43.116Z,102081.84
2023-02-07T01:22:00.117Z,102076.56
2023-02-07T01:26:16.960Z,102083.19
2023-02-07T01:30:33.188Z,102074.44
2023-02-07T01:34:49.471Z,102057.28
2023-02-07T01:39:05.946Z,102056.03
2023-02-07T01:43:25.545Z,102046.31
2023-02-07T01:47:41.813Z,102039.06
2023-02-07T01:52:08.993Z,102040.91
2023-02-07T01:56:31.582Z,102033.16
2023-02-07T02:00:49.014Z,102023.69
2023-02-07T02:05:05.652Z,102022.94
2023-02-07T02:09:21.930Z,102041.50
2023-02-07T02:13:44.737Z,102037.03
2023-02-07T02:18:19.184Z,102033.50
2023-02-07T02:23:15.483Z,102020.44
2023-02-07T02:28:09.359Z,102029.03
2023-02-07T02:32:47.672Z,102033.78
2023-02-07T02:37:25.677Z,102038.47
2023-02-07T02:41:58.429Z,102037.28
2023-02-07T02:46:35.117Z,102044.78
2023-02-07T02:50:53.454Z,102043.16
2023-02-07T02:55:09.839Z,102047.47
2023-02-07T02:59:39.615Z,102037.28
2023-02-07T03:04:20.682Z,102038.38
2023-02-07T03:08:51.448Z,102038.84
2023-02-07T03:13:41.647Z,102032.06
2023-02-07T03:18:08.926Z,102034.69
2023-02-07T03:22:26.576Z,102030.13
2023-02-07T03:26:44.843Z,102033.78
2023-02-07T03:31:03.147Z,102034.97
2023-02-07T03:35:38.091Z,102028.31
2023-02-07T03:39:54.658Z,102031.81
2023-02-07T03:44:13.544Z,102026.00
2023-02-07T03:48:29.889Z,102040.00
2023-02-07T03:52:46.112Z,102042.44
2023-02-07T03:57:02.466Z,102030.34
2023-02-07T04:01:18.894Z,102036.19
2023-02-07T04:05:35.265Z,102026.97
2023-02-07T04:09:52.058Z,102009.16
2023-02-07T04:14:08.353Z,102015.84
2023-02-07T04:18:24.640Z,102013.06
2023-02-07T04:22:40.935Z,102009.41
2023-02-07T04:26:57.125Z,102019.94
2023-02-07T04:31:13.482Z,102021.53
2023-02-07T04:35:29.747Z,102022.75
2023-02-07T04:39:47.175Z,102028.88
2023-02-07T04:44:03.450Z,102033.87
2023-02-07T04:48:19.761Z,102048.44
2023-02-07T04:52:36.074Z,102072.94
2023-02-07T04:56:52.375Z,102063.19
2023-02-07T05:01:08.647Z,102061.34
2023-02-07T05:05:25.018Z,102061.72
2023-02-07T05:09:41.267Z,102070.97
2023-02-07T05:13:57.555Z,102063.19
2023-02-07T05:18:13.826Z,102080.06
2023-02-07T05:22:30.131Z,102075.56
2023-02-07T05:26:46.353Z,102067.91
2023-02-07T05:31:02.775Z,102073.63
2023-02-07T05:35:19.133Z,102081.66
2023-02-07T05:39:35.450Z,102092.34
2023-02-07T05:43:51.670Z,102091.63
2023-02-07T05:48:08.128Z,102100.28
2023-02-07T05:52:24.420Z,102109.59
2023-02-07T05:56:40.747Z,102121.13
2023-02-07T06:00:57.139Z,102105.44
2023-02-07T06:05:20.412Z,102108.69
2023-02-07T06:09:36.895Z,102116.72
2023-02-07T06:13:53.209Z,102107.72
2023-02-07T06:18:09.471Z,102099.75
2023-02-07T06:22:25.875Z,102097.91
2023-02-07T06:26:42.660Z,102101.13
2023-02-07T06:30:59.119Z,102096.75
2023-02-07T06:35:15.453Z,102092.31
2023-02-07T06:39:31.767Z,102081.50
2023-02-07T06:43:47.983Z,102079.25
2023-02-07T06:48:04.995Z,102077.78
2023-02-07T06:52:21.293Z,102074.16
2023-02-07T06:56:38.367Z,102073.28
2023-02-07T07:00:54.640Z,102078.34
2023-02-07T07:05:10.967Z,102067.22
2023-02-07T07:09:27.623Z,102068.53
2023-02-07T07:13:43.853Z,102064.03
2023-02-07T07:18:00.122Z,102055.53
2023-02-07T07:22:16.481Z,102063.28
2023-02-07T07:26:47.094Z,102065.00
2023-02-07T07:31:06.894Z,102063.41
2023-02-07T07:35:23.304Z,102064.41
2023-02-07T07:39:39.512Z,102068.69
2023-02-07T07:43:56.031Z,102067.34
2023-02-07T07:48:12.749Z,102065.88
2023-02-07T07:52:29.016Z,102077.22
2023-02-07T07:56:45.346Z,102065.75
2023-02-07T08:01:01.557Z,102067.16
2023-02-07T08:05:17.893Z,102063.78
2023-02-07T08:09:34.261Z,102073.69
2023-02-07T08:13:50.738Z,102066.50
2023-02-07T08:18:07.287Z,102055.09
2023-02-07T08:22:23.506Z,102049.91
2023-02-07T08:26:39.794Z,102057.37
2023-02-07T08:31:00.008Z,102050.03
2023-02-07T08:35:16.277Z,102058.66
2023-02-07T08:39:32.747Z,102048.91
2023-02-07T08:43:48.989Z,102049.91
2023-02-07T08:48:05.406Z,102056.00
2023-02-07T08:52:21.648Z,102054.63
2023-02-07T08:56:38.053Z,102047.34
2023-02-07T09:00:54.549Z,102045.41
2023-02-07T09:05:11.749Z,102054.13
2023-02-07T09:09:27.944Z,102053.78
2023-02-07T09:13:45.746Z,102052.25
2023-02-07T09:18:02.049Z,102043.69
2023-02-07T09:22:20.775Z,102045.69
2023-02-07T09:26:39.203Z,102038.78
2023-02-07T09:30:55.651Z,102049.69
2023-02-07T09:35:11.951Z,102048.50
2023-02-07T09:39:28.328Z,102044.13
2023-02-07T09:43:44.775Z,102042.38
2023-02-07T09:48:24.260Z,102038.78
2023-02-07T09:53:05.942Z,102027.19
2023-02-07T09:57:38.089Z,102026.69
2023-02-07T10:02:01.525Z,102015.94
2023-02-07T10:06:24.248Z,102013.94
2023-02-07T10:10:47.436Z,102012.84
2023-02-07T10:15:12.932Z,102025.94
2023-02-07T10:19:39.612Z,102019.53
2023-02-07T10:24:33.441Z,102023.25
2023-02-07T10:29:14.585Z,102018.81
2023-02-07T10:33:35.014Z,102007.03
2023-02-07T10:37:54.692Z,102000.75
2023-02-07T10:42:17.465Z,102002.44
2023-02-07T10:46:35.204Z,101995.75
2023-02-07T10:50:53.542Z,102007.03
2023-02-07T10:55:12.147Z,101994.69
2023-02-07T10:59:39.946Z,101987.03
2023-02-07T11:03:59.298Z,101989.22
2023-02-07T11:08:15.447Z,101980.03
2023-02-07T11:12:31.738Z,101973.59
2023-02-07T11:16:48.733Z,101972.37
2023-02-07T11:21:21.406Z,101965.59
2023-02-07T11:25:40.390Z,101955.97
2023-02-07T11:30:05.269Z,101959.88
2023-02-07T11:34:54.715Z,101951.84
2023-02-07T11:39:18.550Z,101955.37
2023-02-07T11:43:36.078Z,101943.84
2023-02-07T11:47:56.249Z,101945.97
2023-02-07T11:52:13.542Z,101938.78
2023-02-07T11:56:49.177Z,101934.06
2023-02-07T12:01:08.107Z,101945.75
2023-02-07T12:05:30.884Z,101927.47
2023-02-07T12:10:04.395Z,101932.53
2023-02-07T12:14:41.300Z,101926.78
2023-02-07T12:19:13.108Z,101916.44
2023-02-07T12:23:44.627Z,101915.63
2023-02-07T12:28:10.594Z,101920.12
2023-02-07T12:32:41.152Z,101912.88
2023-02-07T12:37:15.393Z,101916.88
2023-02-07T12:41:34.575Z,101901.31
2023-02-07T12:46:00.337Z,101897.59
2023-02-07T12:50:28.355Z,101894.94
2023-02-07T12:55:06.405Z,101889.81
2023-02-07T12:59:40.682Z,101890.03
2023-02-07T13:04:24.726Z,101887.44
2023-02-07T13:09:08.124Z,101899.50
2023-02-07T13:13:57.055Z,101897.00
2023-02-07T13:18:37.174Z,101894.06
2023-02-07T13:23:06.844Z,101898.78
2023-02-07T13:27:25.539Z,101892.78
2023-02-07T13:31:48.649Z,101885.53
2023-02-07T13:36:31.377Z,101901.00
2023-02-07T13:41:06.866Z,101898.31
2023-02-07T13:45:49.916Z,101891.94
2023-02-07T13:50:25.589Z,101884.53
2023-02-07T13:55:06.771Z,101884.16
2023-02-07T13:59:39.787Z,101881.81
2023-02-07T14:04:12.947Z,101877.31
2023-02-07T14:08:29.188Z,101887.78
2023-02-07T14:12:48.911Z,101884.59
2023-02-07T14:17:29.612Z,101878.59
2023-02-07T14:21:45.877Z,101875.59
2023-02-07T14:26:22.059Z,101881.37
2023-02-07T14:30:56.674Z,101887.97
2023-02-07T14:35:13.030Z,101896.69
2023-02-07T14:39:30.217Z,101886.06
2023-02-07T14:44:09.172Z,101888.09
2023-02-07T14:48:41.047Z,101897.75
2023-02-07T14:53:04.772Z,101892.75
2023-02-07T14:57:54.954Z,101884.50
2023-02-07T15:02:34.944Z,101876.25
2023-02-07T15:06:51.715Z,101879.22
2023-02-07T15:11:14.835Z,101880.78
2023-02-07T15:16:01.752Z,101884.47
2023-02-07T15:20:21.372Z,101885.25
2023-02-07T15:24:50.902Z,101889.25
2023-02-07T15:29:19.801Z,101897.41
2023-02-07T15:33:50.279Z,101896.41
2023-02-07T15:38:36.102Z,101911.59
2023-02-07T15:42:54.479Z,101927.63
2023-02-07T15:47:29.156Z,101928.72
2023-02-07T15:51:47.465Z,101939.09
2023-02-07T15:56:06.178Z,101955.97
2023-02-07T16:00:28.715Z,101955.09
2023-02-07T16:04:47.659Z,101957.12
2023-02-07T16:09:06.773Z,101958.72
2023-02-07T16:13:23.544Z,101963.25
2023-02-07T16:17:44.610Z,101976.19
2023-02-07T16:22:12.165Z,101972.69
2023-02-07T16:26:28.679Z,101977.62
2023-02-07T16:30:44.942Z,101973.22
2023-02-07T16:35:01.324Z,101966.00
2023-02-07T16:39:17.590Z,101959.25
2023-02-07T16:43:35.812Z,101961.63
2023-02-07T16:47:53.456Z,101966.16
2023-02-07T16:52:10.016Z,101968.97
2023-02-07T16:56:27.998Z,101974.34
2023-02-07T17:00:44.327Z,101984.31
2023-02-07T17:05:02.630Z,101983.41
2023-02-07T17:09:24.492Z,101983.75
2023-02-07T17:13:40.990Z,101976.03
2023-02-07T17:17:59.060Z,101980.09
2023-02-07T17:22:15.602Z,101985.97
2023-02-07T17:26:32.309Z,101980.28
2023-02-07T17:30:50.662Z,101985.56
2023-02-07T17:35:08.622Z,101985.16
2023-02-07T17:39:24.997Z,101993.47
2023-02-07T17:43:41.853Z,101989.66
2023-02-07T17:47:58.148Z,101987.75
2023-02-07T17:52:16.143Z,102000.19
2023-02-07T17:56:33.853Z,101997.41
2023-02-07T18:00:50.138Z,102003.69
2023-02-07T18:05:07.482Z,102011.09
2023-02-07T18:09:24.246Z,102021.47
2023-02-07T18:13:44.612Z,102025.75
2023-02-07T18:18:01.699Z,102031.13
2023-02-07T18:22:21.222Z,102031.59
2023-02-07T18:26:38.168Z,102028.69
2023-02-07T18:30:54.486Z,102030.81
2023-02-07T18:35:11.769Z,102043.13
2023-02-07T18:39:28.124Z,102038.50
2023-02-07T18:43:44.526Z,102037.28
2023-02-07T18:48:00.875Z,102032.16
2023-02-07T18:52:17.324Z,102051.88
2023-02-07T18:56:37.610Z,102047.59
2023-02-07T19:00:54.047Z,102054.47
2023-02-07T19:05:10.387Z,102057.50
2023-02-07T19:09:27.332Z,102057.75
2023-02-07T19:13:43.943Z,102053.38
2023-02-07T19:18:00.246Z,102057.91
2023-02-07T19:22:26.714Z,102063.28
2023-02-07T19:26:48.918Z,102054.97
2023-02-07T19:31:06.997Z,102059.38
2023-02-07T19:35:23.292Z,102057.91
2023-02-07T19:39:39.644Z,102067.56
2023-02-07T19:43:56.104Z,102067.84
2023-02-07T19:48:12.327Z,102072.97
2023-02-07T19:52:29.279Z,102075.38
2023-02-07T19:56:45.616Z,102076.63
2023-02-07T20:01:02.342Z,102066.66
2023-02-07T20:05:18.756Z,102068.50
2023-02-07T20:09:35.193Z,102065.91
2023-02-07T20:13:54.040Z,102062.31
2023-02-07T20:18:11.153Z,102071.91
2023-02-07T20:22:27.890Z,102085.44
2023-02-07T20:26:44.726Z,102082.91
2023-02-07T20:31:01.763Z,102097.84
2023-02-07T20:35:18.228Z,102096.44
2023-02-07T20:39:34.738Z,102100.06
2023-02-07T20:43:51.121Z,102103.91
2023-02-07T20:48:07.528Z,102106.00
2023-02-07T20:52:24.507Z,102104.87
2023-02-07T20:56:41.162Z,102111.22
2023-02-07T21:00:57.439Z,102105.16
2023-02-07T21:05:13.836Z,102105.69
2023-02-07T21:09:31.188Z,102112.69
2023-02-07T21:13:53.861Z,102105.09
2023-02-07T21:18:10.448Z,102106.41
2023-02-07T21:22:26.933Z,102105.00
2023-02-07T21:26:43.348Z,102108.81
2023-02-07T21:31:23.440Z,102115.28
2023-02-07T21:35:39.730Z,102119.19
2023-02-07T21:39:56.062Z,102120.59
2023-02-07T21:44:13.495Z,102119.56
2023-02-07T21:48:30.730Z,102120.19
2023-02-07T21:52:46.899Z,102128.16
2023-02-07T21:57:03.660Z,102131.84
2023-02-07T22:01:22.223Z,102119.00
2023-02-07T22:05:38.524Z,102123.59
2023-02-07T22:09:54.826Z,102125.03
2023-02-07T22:14:12.829Z,102127.66
2023-02-07T22:18:29.248Z,102124.19
2023-02-07T22:22:45.525Z,102130.78
2023-02-07T22:27:01.779Z,102127.78
2023-02-07T22:31:23.243Z,102123.72
2023-02-07T22:35:42.383Z,102129.13
2023-02-07T22:39:58.581Z,102129.31
2023-02-07T22:44:15.015Z,102128.69
2023-02-07T22:48:32.215Z,102132.81
2023-02-07T22:52:48.673Z,102138.94
2023-02-07T22:57:06.388Z,102145.41
2023-02-07T23:01:28.302Z,102149.25
2023-02-07T23:05:44.593Z,102147.63
2023-02-07T23:10:00.960Z,102140.25
2023-02-07T23:14:17.486Z,102143.78
2023-02-07T23:18:33.708Z,102156.63
2023-02-07T23:22:49.944Z,102152.94
2023-02-07T23:27:06.247Z,102152.72
2023-02-07T23:31:24.565Z,102152.31
2023-02-07T23:35:40.853Z,102151.72
2023-02-07T23:39:57.125Z,102156.16
2023-02-07T23:44:13.470Z,102160.38
2023-02-07T23:48:29.788Z,102153.75
2023-02-07T23:52:49.087Z,102154.41
2023-02-07T23:57:05.438Z,102159.37
